sensor_id;sensor_type;location;lat;lon;timestamp;P1;durP1;ratioP1;P2;durP2;ratioP2
39176;SDS011;24904;52.208;21.192;2023-06-22T00:03:15;31.50;;;28.20;;
39176;SDS011;24904;52.208;21.192;2023-06-22T00:08:21;34.10;;;29.70;;
39176;SDS011;24904;52.208;21.192;2023-06-22T00:13:26;35.80;;;30.20;;
39176;SDS011;24904;52.208;21.192;2023-06-22T00:18:31;35.10;;;30.30;;
39176;SDS011;24904;52.208;21.192;2023-06-22T00:23:36;35.20;;;29.20;;
39176;SDS011;24904;52.208;21.192;2023-06-22T00:28:41;33.20;;;29.70;;
39176;SDS011;24904;52.208;21.192;2023-06-22T00:33:46;33.10;;;28.50;;
39176;SDS011;24904;52.208;21.192;2023-06-22T00:38:53;34.50;;;31.00;;
39176;SDS011;24904;52.208;21.192;2023-06-22T00:43:59;34.30;;;30.70;;
39176;SDS011;24904;52.208;21.192;2023-06-22T00:49:07;35.70;;;31.90;;
39176;SDS011;24904;52.208;21.192;2023-06-22T00:54:12;35.10;;;31.30;;
39176;SDS011;24904;52.208;21.192;2023-06-22T00:59:17;35.60;;;31.70;;
39176;SDS011;24904;52.208;21.192;2023-06-22T01:04:24;34.70;;;29.50;;
39176;SDS011;24904;52.208;21.192;2023-06-22T01:09:43;38.10;;;32.30;;
39176;SDS011;24904;52.208;21.192;2023-06-22T01:14:53;34.10;;;30.50;;
39176;SDS011;24904;52.208;21.192;2023-06-22T01:20:05;35.50;;;31.40;;
39176;SDS011;24904;52.208;21.192;2023-06-22T01:25:16;32.90;;;29.30;;
39176;SDS011;24904;52.208;21.192;2023-06-22T01:30:29;32.60;;;28.90;;
39176;SDS011;24904;52.208;21.192;2023-06-22T01:35:39;36.60;;;31.70;;
39176;SDS011;24904;52.208;21.192;2023-06-22T01:40:45;33.90;;;30.30;;
39176;SDS011;24904;52.208;21.192;2023-06-22T01:45:52;35.50;;;31.60;;
39176;SDS011;24904;52.208;21.192;2023-06-22T01:50:59;33.50;;;29.90;;
39176;SDS011;24904;52.208;21.192;2023-06-22T01:56:04;35.50;;;31.40;;
39176;SDS011;24904;52.208;21.192;2023-06-22T02:01:11;35.60;;;32.00;;
39176;SDS011;24904;52.208;21.192;2023-06-22T02:06:21;36.30;;;30.60;;
39176;SDS011;24904;52.208;21.192;2023-06-22T02:15:01;41.10;;;30.40;;
39176;SDS011;24904;52.208;21.192;2023-06-22T02:20:06;33.60;;;29.00;;
39176;SDS011;24904;52.208;21.192;2023-06-22T02:25:15;34.40;;;30.80;;
39176;SDS011;24904;52.208;21.192;2023-06-22T02:30:20;34.90;;;30.60;;
39176;SDS011;24904;52.208;21.192;2023-06-22T02:35:23;34.80;;;31.30;;
39176;SDS011;24904;52.208;21.192;2023-06-22T02:40:27;36.70;;;32.80;;
39176;SDS011;24904;52.208;21.192;2023-06-22T02:45:31;36.50;;;32.70;;
39176;SDS011;24904;52.208;21.192;2023-06-22T02:50:34;38.70;;;33.40;;
39176;SDS011;24904;52.208;21.192;2023-06-22T02:55:38;36.80;;;32.90;;
39176;SDS011;24904;52.208;21.192;2023-06-22T03:00:41;37.10;;;33.30;;
39176;SDS011;24904;52.208;21.192;2023-06-22T03:05:44;40.10;;;33.00;;
39176;SDS011;24904;52.208;21.192;2023-06-22T03:10:48;37.20;;;33.30;;
39176;SDS011;24904;52.208;21.192;2023-06-22T03:15:51;40.30;;;34.70;;
39176;SDS011;24904;52.208;21.192;2023-06-22T03:20:54;35.30;;;31.60;;
39176;SDS011;24904;52.208;21.192;2023-06-22T03:25:59;38.80;;;33.00;;
39176;SDS011;24904;52.208;21.192;2023-06-22T03:31:02;38.30;;;33.40;;
39176;SDS011;24904;52.208;21.192;2023-06-22T03:36:08;36.20;;;32.50;;
39176;SDS011;24904;52.208;21.192;2023-06-22T03:41:11;36.70;;;32.90;;
39176;SDS011;24904;52.208;21.192;2023-06-22T03:46:15;38.00;;;32.70;;
39176;SDS011;24904;52.208;21.192;2023-06-22T03:51:18;37.90;;;32.50;;
39176;SDS011;24904;52.208;21.192;2023-06-22T03:56:21;40.70;;;35.50;;
39176;SDS011;24904;52.208;21.192;2023-06-22T04:01:24;40.80;;;34.40;;
39176;SDS011;24904;52.208;21.192;2023-06-22T04:06:27;47.00;;;38.30;;
39176;SDS011;24904;52.208;21.192;2023-06-22T04:11:30;47.50;;;38.70;;
39176;SDS011;24904;52.208;21.192;2023-06-22T04:16:34;47.70;;;38.30;;
39176;SDS011;24904;52.208;21.192;2023-06-22T04:21:37;43.80;;;38.20;;
39176;SDS011;24904;52.208;21.192;2023-06-22T04:26:40;43.90;;;38.50;;
39176;SDS011;24904;52.208;21.192;2023-06-22T04:38:29;45.10;;;36.50;;
39176;SDS011;24904;52.208;21.192;2023-06-22T04:43:34;49.00;;;34.90;;
39176;SDS011;24904;52.208;21.192;2023-06-22T04:48:37;41.60;;;36.10;;
39176;SDS011;24904;52.208;21.192;2023-06-22T04:53:40;40.00;;;34.30;;
39176;SDS011;24904;52.208;21.192;2023-06-22T04:58:43;41.50;;;35.60;;
39176;SDS011;24904;52.208;21.192;2023-06-22T05:03:46;39.50;;;33.70;;
39176;SDS011;24904;52.208;21.192;2023-06-22T05:08:49;38.30;;;32.80;;
39176;SDS011;24904;52.208;21.192;2023-06-22T05:13:52;39.20;;;32.70;;
39176;SDS011;24904;52.208;21.192;2023-06-22T05:18:55;37.50;;;33.00;;
39176;SDS011;24904;52.208;21.192;2023-06-22T05:23:58;36.50;;;30.60;;
39176;SDS011;24904;52.208;21.192;2023-06-22T05:29:03;40.50;;;34.10;;
39176;SDS011;24904;52.208;21.192;2023-06-22T05:34:06;39.90;;;32.60;;
39176;SDS011;24904;52.208;21.192;2023-06-22T05:39:13;37.70;;;30.70;;
39176;SDS011;24904;52.208;21.192;2023-06-22T05:44:16;41.00;;;31.90;;
39176;SDS011;24904;52.208;21.192;2023-06-22T05:49:19;37.30;;;31.70;;
39176;SDS011;24904;52.208;21.192;2023-06-22T05:54:23;38.50;;;31.50;;
39176;SDS011;24904;52.208;21.192;2023-06-22T05:59:26;39.50;;;30.80;;
39176;SDS011;24904;52.208;21.192;2023-06-22T06:04:29;35.30;;;28.70;;
39176;SDS011;24904;52.208;21.192;2023-06-22T06:09:34;33.10;;;28.60;;
39176;SDS011;24904;52.208;21.192;2023-06-22T06:14:38;35.20;;;28.40;;
39176;SDS011;24904;52.208;21.192;2023-06-22T06:19:41;37.30;;;28.90;;
39176;SDS011;24904;52.208;21.192;2023-06-22T06:24:44;38.40;;;30.20;;
39176;SDS011;24904;52.208;21.192;2023-06-22T06:29:47;35.10;;;26.80;;
39176;SDS011;24904;52.208;21.192;2023-06-22T06:34:50;32.60;;;27.90;;
39176;SDS011;24904;52.208;21.192;2023-06-22T06:39:53;42.20;;;29.60;;
39176;SDS011;24904;52.208;21.192;2023-06-22T06:53:26;36.50;;;30.70;;
39176;SDS011;24904;52.208;21.192;2023-06-22T06:58:29;32.70;;;27.90;;
39176;SDS011;24904;52.208;21.192;2023-06-22T07:03:32;33.40;;;27.50;;
39176;SDS011;24904;52.208;21.192;2023-06-22T07:08:35;28.50;;;25.30;;
39176;SDS011;24904;52.208;21.192;2023-06-22T07:13:41;32.90;;;25.80;;
39176;SDS011;24904;52.208;21.192;2023-06-22T07:18:44;30.70;;;26.90;;
39176;SDS011;24904;52.208;21.192;2023-06-22T07:23:47;28.00;;;24.50;;
39176;SDS011;24904;52.208;21.192;2023-06-22T07:28:50;24.80;;;22.20;;
39176;SDS011;24904;52.208;21.192;2023-06-22T07:33:53;25.90;;;22.60;;
39176;SDS011;24904;52.208;21.192;2023-06-22T07:38:56;31.20;;;19.90;;
39176;SDS011;24904;52.208;21.192;2023-06-22T07:43:59;27.10;;;17.90;;
39176;SDS011;24904;52.208;21.192;2023-06-22T07:49:02;20.10;;;17.80;;
39176;SDS011;24904;52.208;21.192;2023-06-22T07:54:05;22.50;;;17.50;;
39176;SDS011;24904;52.208;21.192;2023-06-22T08:08:26;20.90;;;13.20;;
39176;SDS011;24904;52.208;21.192;2023-06-22T08:13:30;14.20;;;11.60;;
39176;SDS011;24904;52.208;21.192;2023-06-22T08:18:33;14.00;;;11.10;;
39176;SDS011;24904;52.208;21.192;2023-06-22T08:23:36;17.90;;;11.50;;
39176;SDS011;24904;52.208;21.192;2023-06-22T08:28:39;10.90;;;9.30;;
39176;SDS011;24904;52.208;21.192;2023-06-22T08:33:42;9.40;;;8.00;;
39176;SDS011;24904;52.208;21.192;2023-06-22T08:38:47;12.80;;;9.10;;
39176;SDS011;24904;52.208;21.192;2023-06-22T08:43:52;7.60;;;6.80;;
39176;SDS011;24904;52.208;21.192;2023-06-22T08:48:55;12.20;;;7.80;;
39176;SDS011;24904;52.208;21.192;2023-06-22T08:53:59;11.00;;;6.20;;
39176;SDS011;24904;52.208;21.192;2023-06-22T08:59:02;10.30;;;5.60;;
39176;SDS011;24904;52.208;21.192;2023-06-22T09:04:05;17.60;;;5.20;;
39176;SDS011;24904;52.208;21.192;2023-06-22T09:09:10;8.40;;;5.20;;
39176;SDS011;24904;52.208;21.192;2023-06-22T09:14:14;12.10;;;5.90;;
39176;SDS011;24904;52.208;21.192;2023-06-22T09:19:17;5.50;;;4.70;;
39176;SDS011;24904;52.208;21.192;2023-06-22T09:24:20;6.90;;;5.10;;
39176;SDS011;24904;52.208;21.192;2023-06-22T09:29:24;8.10;;;5.70;;
39176;SDS011;24904;52.208;21.192;2023-06-22T09:34:27;9.00;;;5.40;;
39176;SDS011;24904;52.208;21.192;2023-06-22T09:39:30;9.30;;;3.60;;
39176;SDS011;24904;52.208;21.192;2023-06-22T09:44:33;9.80;;;3.80;;
39176;SDS011;24904;52.208;21.192;2023-06-22T09:49:36;4.90;;;3.50;;
39176;SDS011;24904;52.208;21.192;2023-06-22T09:54:39;8.90;;;3.80;;
39176;SDS011;24904;52.208;21.192;2023-06-22T09:59:42;9.00;;;3.60;;
39176;SDS011;24904;52.208;21.192;2023-06-22T10:04:45;11.20;;;4.30;;
39176;SDS011;24904;52.208;21.192;2023-06-22T10:09:48;14.60;;;3.30;;
39176;SDS011;24904;52.208;21.192;2023-06-22T10:14:51;6.20;;;3.30;;
39176;SDS011;24904;52.208;21.192;2023-06-22T10:19:54;5.30;;;3.20;;
39176;SDS011;24904;52.208;21.192;2023-06-22T10:24:57;5.70;;;3.40;;
39176;SDS011;24904;52.208;21.192;2023-06-22T10:30:00;9.00;;;3.50;;
39176;SDS011;24904;52.208;21.192;2023-06-22T10:35:04;10.80;;;4.80;;
39176;SDS011;24904;52.208;21.192;2023-06-22T10:40:09;7.20;;;3.20;;
39176;SDS011;24904;52.208;21.192;2023-06-22T10:45:13;8.90;;;3.10;;
39176;SDS011;24904;52.208;21.192;2023-06-22T10:50:17;7.30;;;3.80;;
39176;SDS011;24904;52.208;21.192;2023-06-22T10:55:21;9.40;;;4.00;;
39176;SDS011;24904;52.208;21.192;2023-06-22T11:00:24;5.60;;;3.50;;
39176;SDS011;24904;52.208;21.192;2023-06-22T11:05:27;7.70;;;5.40;;
39176;SDS011;24904;52.208;21.192;2023-06-22T11:10:30;10.70;;;4.00;;
39176;SDS011;24904;52.208;21.192;2023-06-22T11:15:33;10.50;;;4.20;;
39176;SDS011;24904;52.208;21.192;2023-06-22T11:20:36;6.80;;;4.40;;
39176;SDS011;24904;52.208;21.192;2023-06-22T11:25:40;8.50;;;4.00;;
39176;SDS011;24904;52.208;21.192;2023-06-22T11:30:43;6.80;;;3.80;;
39176;SDS011;24904;52.208;21.192;2023-06-22T11:35:46;8.90;;;3.90;;
39176;SDS011;24904;52.208;21.192;2023-06-22T11:40:49;7.90;;;4.20;;
39176;SDS011;24904;52.208;21.192;2023-06-22T11:45:52;6.40;;;3.90;;
39176;SDS011;24904;52.208;21.192;2023-06-22T11:50:57;8.30;;;4.10;;
39176;SDS011;24904;52.208;21.192;2023-06-22T11:56:00;9.90;;;5.40;;
39176;SDS011;24904;52.208;21.192;2023-06-22T12:01:03;11.80;;;4.00;;
39176;SDS011;24904;52.208;21.192;2023-06-22T12:06:06;6.80;;;4.40;;
39176;SDS011;24904;52.208;21.192;2023-06-22T12:11:09;9.10;;;3.90;;
39176;SDS011;24904;52.208;21.192;2023-06-22T12:16:12;7.90;;;4.00;;
39176;SDS011;24904;52.208;21.192;2023-06-22T12:21:36;9.40;;;4.40;;
39176;SDS011;24904;52.208;21.192;2023-06-22T12:26:42;9.90;;;4.70;;
39176;SDS011;24904;52.208;21.192;2023-06-22T12:31:47;6.10;;;3.90;;
39176;SDS011;24904;52.208;21.192;2023-06-22T12:36:52;11.00;;;4.40;;
39176;SDS011;24904;52.208;21.192;2023-06-22T12:41:57;7.30;;;4.10;;
39176;SDS011;24904;52.208;21.192;2023-06-22T12:47:03;8.30;;;4.20;;
39176;SDS011;24904;52.208;21.192;2023-06-22T12:52:10;7.70;;;4.30;;
39176;SDS011;24904;52.208;21.192;2023-06-22T12:57:15;12.40;;;4.30;;
39176;SDS011;24904;52.208;21.192;2023-06-22T13:02:21;6.60;;;4.10;;
39176;SDS011;24904;52.208;21.192;2023-06-22T13:07:26;8.10;;;4.20;;
39176;SDS011;24904;52.208;21.192;2023-06-22T13:12:31;5.30;;;3.90;;
39176;SDS011;24904;52.208;21.192;2023-06-22T13:17:36;7.30;;;4.00;;
39176;SDS011;24904;52.208;21.192;2023-06-22T13:22:41;9.00;;;4.30;;
39176;SDS011;24904;52.208;21.192;2023-06-22T13:27:46;7.00;;;4.20;;
39176;SDS011;24904;52.208;21.192;2023-06-22T13:32:51;10.80;;;4.40;;
39176;SDS011;24904;52.208;21.192;2023-06-22T13:37:56;6.50;;;3.90;;
39176;SDS011;24904;52.208;21.192;2023-06-22T13:43:01;6.00;;;4.50;;
39176;SDS011;24904;52.208;21.192;2023-06-22T13:48:07;5.20;;;3.60;;
39176;SDS011;24904;52.208;21.192;2023-06-22T13:53:12;5.80;;;4.50;;
39176;SDS011;24904;52.208;21.192;2023-06-22T13:58:17;6.40;;;4.30;;
39176;SDS011;24904;52.208;21.192;2023-06-22T14:03:22;7.90;;;4.50;;
39176;SDS011;24904;52.208;21.192;2023-06-22T14:08:27;7.20;;;4.30;;
39176;SDS011;24904;52.208;21.192;2023-06-22T14:13:32;9.70;;;4.40;;
39176;SDS011;24904;52.208;21.192;2023-06-22T14:25:44;6.30;;;4.40;;
39176;SDS011;24904;52.208;21.192;2023-06-22T14:30:52;7.50;;;5.00;;
39176;SDS011;24904;52.208;21.192;2023-06-22T14:35:58;12.80;;;5.20;;
39176;SDS011;24904;52.208;21.192;2023-06-22T14:41:03;6.20;;;4.70;;
39176;SDS011;24904;52.208;21.192;2023-06-22T14:46:08;6.00;;;4.80;;
39176;SDS011;24904;52.208;21.192;2023-06-22T14:51:13;9.70;;;4.60;;
39176;SDS011;24904;52.208;21.192;2023-06-22T14:56:19;12.00;;;5.30;;
39176;SDS011;24904;52.208;21.192;2023-06-22T15:01:24;15.20;;;5.00;;
39176;SDS011;24904;52.208;21.192;2023-06-22T15:06:29;6.20;;;4.90;;
39176;SDS011;24904;52.208;21.192;2023-06-22T15:11:34;27.10;;;6.90;;
39176;SDS011;24904;52.208;21.192;2023-06-22T15:16:39;8.30;;;4.60;;
39176;SDS011;24904;52.208;21.192;2023-06-22T15:21:44;12.20;;;5.40;;
39176;SDS011;24904;52.208;21.192;2023-06-22T15:30:33;8.90;;;5.40;;
39176;SDS011;24904;52.208;21.192;2023-06-22T15:35:38;9.70;;;5.50;;
39176;SDS011;24904;52.208;21.192;2023-06-22T15:40:43;6.50;;;5.20;;
39176;SDS011;24904;52.208;21.192;2023-06-22T15:45:48;10.30;;;5.30;;
39176;SDS011;24904;52.208;21.192;2023-06-22T15:50:55;7.20;;;5.00;;
39176;SDS011;24904;52.208;21.192;2023-06-22T15:56:00;7.00;;;4.90;;
39176;SDS011;24904;52.208;21.192;2023-06-22T16:01:06;7.40;;;4.70;;
39176;SDS011;24904;52.208;21.192;2023-06-22T16:06:11;8.00;;;5.40;;
39176;SDS011;24904;52.208;21.192;2023-06-22T16:11:16;8.30;;;5.30;;
39176;SDS011;24904;52.208;21.192;2023-06-22T16:16:21;11.20;;;4.40;;
39176;SDS011;24904;52.208;21.192;2023-06-22T16:21:26;7.10;;;5.00;;
39176;SDS011;24904;52.208;21.192;2023-06-22T16:26:37;8.40;;;5.10;;
39176;SDS011;24904;52.208;21.192;2023-06-22T16:31:43;16.40;;;4.90;;
39176;SDS011;24904;52.208;21.192;2023-06-22T16:36:48;7.60;;;5.20;;
39176;SDS011;24904;52.208;21.192;2023-06-22T16:41:53;8.00;;;4.80;;
39176;SDS011;24904;52.208;21.192;2023-06-22T16:46:58;6.70;;;4.40;;
39176;SDS011;24904;52.208;21.192;2023-06-22T16:57:10;9.60;;;4.90;;
39176;SDS011;24904;52.208;21.192;2023-06-22T17:02:17;6.20;;;5.00;;
39176;SDS011;24904;52.208;21.192;2023-06-22T17:07:26;6.40;;;4.80;;
39176;SDS011;24904;52.208;21.192;2023-06-22T17:12:35;8.00;;;4.80;;
39176;SDS011;24904;52.208;21.192;2023-06-22T17:17:42;8.50;;;4.60;;
39176;SDS011;24904;52.208;21.192;2023-06-22T17:22:47;5.40;;;4.50;;
39176;SDS011;24904;52.208;21.192;2023-06-22T17:27:53;6.40;;;4.30;;
39176;SDS011;24904;52.208;21.192;2023-06-22T17:33:03;5.80;;;4.80;;
39176;SDS011;24904;52.208;21.192;2023-06-22T17:38:20;6.70;;;4.90;;
39176;SDS011;24904;52.208;21.192;2023-06-22T17:43:27;6.60;;;4.80;;
39176;SDS011;24904;52.208;21.192;2023-06-22T17:48:32;9.00;;;5.20;;
39176;SDS011;24904;52.208;21.192;2023-06-22T17:53:37;7.70;;;4.70;;
39176;SDS011;24904;52.208;21.192;2023-06-22T17:58:48;10.90;;;5.90;;
39176;SDS011;24904;52.208;21.192;2023-06-22T18:03:54;6.30;;;5.00;;
39176;SDS011;24904;52.208;21.192;2023-06-22T18:09:00;7.90;;;5.20;;
39176;SDS011;24904;52.208;21.192;2023-06-22T18:14:06;7.70;;;4.90;;
39176;SDS011;24904;52.208;21.192;2023-06-22T18:19:11;7.20;;;5.10;;
39176;SDS011;24904;52.208;21.192;2023-06-22T18:24:18;10.90;;;5.40;;
39176;SDS011;24904;52.208;21.192;2023-06-22T18:29:23;9.20;;;6.20;;
39176;SDS011;24904;52.208;21.192;2023-06-22T18:34:29;9.80;;;5.80;;
39176;SDS011;24904;52.208;21.192;2023-06-22T18:39:34;11.40;;;5.50;;
39176;SDS011;24904;52.208;21.192;2023-06-22T18:44:43;8.70;;;6.00;;
39176;SDS011;24904;52.208;21.192;2023-06-22T18:50:02;11.60;;;7.20;;
39176;SDS011;24904;52.208;21.192;2023-06-22T18:58:15;11.70;;;6.10;;
39176;SDS011;24904;52.208;21.192;2023-06-22T19:03:34;11.40;;;6.60;;
39176;SDS011;24904;52.208;21.192;2023-06-22T19:14:20;13.30;;;6.90;;
39176;SDS011;24904;52.208;21.192;2023-06-22T19:19:26;10.10;;;7.40;;
39176;SDS011;24904;52.208;21.192;2023-06-22T19:24:31;10.20;;;7.90;;
39176;SDS011;24904;52.208;21.192;2023-06-22T19:29:53;13.10;;;7.10;;
39176;SDS011;24904;52.208;21.192;2023-06-22T19:34:59;12.60;;;8.20;;
39176;SDS011;24904;52.208;21.192;2023-06-22T19:40:06;12.20;;;7.70;;
39176;SDS011;24904;52.208;21.192;2023-06-22T19:50:20;20.60;;;8.20;;
39176;SDS011;24904;52.208;21.192;2023-06-22T19:55:25;14.70;;;8.20;;
39176;SDS011;24904;52.208;21.192;2023-06-22T20:00:30;15.70;;;8.00;;
39176;SDS011;24904;52.208;21.192;2023-06-22T20:05:40;15.90;;;8.20;;
39176;SDS011;24904;52.208;21.192;2023-06-22T20:10:46;14.40;;;9.10;;
39176;SDS011;24904;52.208;21.192;2023-06-22T20:15:51;11.40;;;8.90;;
39176;SDS011;24904;52.208;21.192;2023-06-22T20:20:57;13.00;;;9.20;;
39176;SDS011;24904;52.208;21.192;2023-06-22T20:26:02;11.00;;;8.90;;
39176;SDS011;24904;52.208;21.192;2023-06-22T20:31:10;13.30;;;9.90;;
39176;SDS011;24904;52.208;21.192;2023-06-22T20:36:15;11.30;;;10.00;;
39176;SDS011;24904;52.208;21.192;2023-06-22T20:41:21;11.90;;;9.80;;
39176;SDS011;24904;52.208;21.192;2023-06-22T20:46:27;10.60;;;9.40;;
39176;SDS011;24904;52.208;21.192;2023-06-22T20:51:32;12.20;;;9.60;;
39176;SDS011;24904;52.208;21.192;2023-06-22T20:56:38;12.20;;;10.10;;
39176;SDS011;24904;52.208;21.192;2023-06-22T21:01:43;11.70;;;9.70;;
39176;SDS011;24904;52.208;21.192;2023-06-22T21:06:48;12.00;;;10.20;;
39176;SDS011;24904;52.208;21.192;2023-06-22T21:11:54;13.60;;;10.10;;
39176;SDS011;24904;52.208;21.192;2023-06-22T21:16:59;13.60;;;10.10;;
39176;SDS011;24904;52.208;21.192;2023-06-22T21:22:04;12.80;;;10.70;;
39176;SDS011;24904;52.208;21.192;2023-06-22T21:27:09;11.70;;;10.40;;
39176;SDS011;24904;52.208;21.192;2023-06-22T21:32:14;12.90;;;10.50;;
39176;SDS011;24904;52.208;21.192;2023-06-22T21:37:19;13.40;;;11.00;;
39176;SDS011;24904;52.208;21.192;2023-06-22T21:42:25;14.60;;;10.50;;
39176;SDS011;24904;52.208;21.192;2023-06-22T21:47:30;15.30;;;10.60;;
39176;SDS011;24904;52.208;21.192;2023-06-22T21:52:35;16.90;;;11.50;;
39176;SDS011;24904;52.208;21.192;2023-06-22T21:57:40;18.80;;;10.20;;
39176;SDS011;24904;52.208;21.192;2023-06-22T22:02:45;16.80;;;10.20;;
39176;SDS011;24904;52.208;21.192;2023-06-22T22:07:50;14.60;;;10.10;;
39176;SDS011;24904;52.208;21.192;2023-06-22T22:12:55;13.10;;;10.40;;
39176;SDS011;24904;52.208;21.192;2023-06-22T22:18:00;13.00;;;9.80;;
39176;SDS011;24904;52.208;21.192;2023-06-22T22:28:12;16.90;;;11.70;;
39176;SDS011;24904;52.208;21.192;2023-06-22T22:33:18;15.20;;;10.40;;
39176;SDS011;24904;52.208;21.192;2023-06-22T22:38:23;13.00;;;10.20;;
39176;SDS011;24904;52.208;21.192;2023-06-22T22:43:28;18.10;;;10.70;;
39176;SDS011;24904;52.208;21.192;2023-06-22T22:48:34;12.60;;;10.20;;
39176;SDS011;24904;52.208;21.192;2023-06-22T22:53:39;11.30;;;9.30;;
39176;SDS011;24904;52.208;21.192;2023-06-22T22:58:45;17.20;;;10.70;;
39176;SDS011;24904;52.208;21.192;2023-06-22T23:03:50;15.40;;;10.90;;
39176;SDS011;24904;52.208;21.192;2023-06-22T23:08:57;13.60;;;9.90;;
39176;SDS011;24904;52.208;21.192;2023-06-22T23:14:02;16.60;;;11.50;;
39176;SDS011;24904;52.208;21.192;2023-06-22T23:19:07;15.50;;;10.30;;
39176;SDS011;24904;52.208;21.192;2023-06-22T23:24:13;14.60;;;10.30;;
39176;SDS011;24904;52.208;21.192;2023-06-22T23:29:18;14.20;;;10.60;;
39176;SDS011;24904;52.208;21.192;2023-06-22T23:34:23;15.60;;;10.50;;
39176;SDS011;24904;52.208;21.192;2023-06-22T23:39:28;14.00;;;10.80;;
39176;SDS011;24904;52.208;21.192;2023-06-22T23:44:33;13.00;;;10.50;;
39176;SDS011;24904;52.208;21.192;2023-06-22T23:49:38;13.70;;;10.80;;
39176;SDS011;24904;52.208;21.192;2023-06-22T23:54:44;12.40;;;9.70;;
39176;SDS011;24904;52.208;21.192;2023-06-22T23:59:49;14.30;;;9.40;;
